Time;durP1;ratioP1;P1;durP2;ratioP2;P2;SDS_P1;SDS_P2;PMS_P1;PMS_P2;Temp;Humidity;BMP_temperature;BMP_pressure;BME280_temperature;BME280_humidity;BME280_pressure;Samples;Min_cycle;Max_cycle;Signal;HPM_P1;HPM_P2
2022/09/10 00:01:59;;;;;;;1.50;1.30;;;14.80;90.10;;;15.52;71.92;97761.13;5068169;28;20486;-79
2022/09/10 00:04:27;;;;;;;2.40;1.37;;;14.80;90.30;;;15.46;72.36;97745.84;5065035;28;20487;-78
2022/09/10 00:06:55;;;;;;;1.63;1.53;;;14.70;90.30;;;15.53;72.30;97751.09;5054453;28;20455;-77
2022/09/10 00:09:23;;;;;;;1.53;1.30;;;14.70;90.90;;;15.53;72.11;97751.09;5053224;28;20454;-79
2022/09/10 00:11:50;;;;;;;3.10;1.27;;;14.70;90.80;;;15.47;71.77;97736.59;5045575;28;20862;-84
2022/09/10 00:14:20;;;;;;;1.83;1.53;;;14.70;90.50;;;15.62;71.94;97751.44;5036951;28;20716;-84
2022/09/10 00:16:50;;;;;;;1.90;1.50;;;14.80;90.50;;;15.68;72.05;97747.69;5053170;28;20521;-85
2022/09/10 00:19:17;;;;;;;2.50;1.90;;;14.90;90.60;;;15.22;72.31;97680.75;5049578;28;20484;-82
2022/09/10 00:21:45;;;;;;;2.40;2.07;;;15.00;90.20;;;15.85;71.56;97745.72;5095822;28;20530;-85
2022/09/10 00:24:13;;;;;;;3.00;2.70;;;15.10;90.10;;;16.10;70.81;97741.63;5076988;28;20497;-82
2022/09/10 00:26:40;;;;;;;2.73;2.07;;;15.20;90.00;;;15.68;70.99;97693.25;5065454;28;20453;-86
2022/09/10 00:29:11;;;;;;;3.70;1.73;;;15.30;89.60;;;16.16;70.83;97741.69;5050526;28;20512;-85
2022/09/10 00:31:38;;;;;;;3.60;1.80;;;15.40;89.20;;;16.05;70.78;97749.75;5050702;28;21006;-81
2022/09/10 00:34:07;;;;;;;2.20;1.63;;;15.40;88.70;;;16.00;71.19;97749.72;5063642;28;20454;-83
2022/09/10 00:36:38;;;;;;;3.30;1.60;;;15.40;88.60;;;16.02;70.55;97720.31;5045708;28;20463;-86
2022/09/10 00:39:09;;;;;;;2.93;1.97;;;15.30;88.50;;;16.07;70.38;97733.13;5087932;28;20480;-87
2022/09/10 00:41:38;;;;;;;1.73;1.63;;;15.30;88.50;;;15.72;70.51;97672.59;5073494;28;20491;-82
2022/09/10 00:44:08;;;;;;;2.30;1.77;;;15.30;88.70;;;15.96;71.28;97743.97;5047606;28;20459;-85
2022/09/10 00:46:41;;;;;;;1.90;1.70;;;15.40;88.60;;;15.69;71.09;97671.22;5053059;28;20462;-86
2022/09/10 00:49:16;;;;;;;2.57;1.70;;;15.40;88.60;;;16.07;70.89;97744.03;5040252;28;20457;-84
2022/09/10 00:51:46;;;;;;;2.43;1.50;;;15.40;88.60;;;16.15;70.99;97732.69;5049862;28;20548;-84
2022/09/10 00:54:16;;;;;;;2.40;1.53;;;15.40;88.80;;;16.21;70.76;97728.91;5036901;28;20499;-82
2022/09/10 00:56:44;;;;;;;2.70;1.67;;;15.60;88.20;;;16.26;70.68;97736.31;5041278;28;20454;-83
2022/09/10 00:59:14;;;;;;;3.43;2.10;;;15.60;88.00;;;15.92;70.67;97720.22;5043687;28;20474;-85
2022/09/10 01:01:42;;;;;;;2.57;1.90;;;15.50;87.60;;;15.96;71.35;97726.78;5044712;28;20484;-85
2022/09/10 01:04:11;;;;;;;4.07;2.83;;;15.40;88.40;;;16.06;71.24;97721.44;5042483;28;20463;-80
2022/09/10 01:06:39;;;;;;;2.93;2.40;;;15.40;88.60;;;16.02;71.24;97733.94;5022264;28;20459;-77
2022/09/10 01:09:08;;;;;;;2.43;2.23;;;15.40;88.50;;;16.22;70.60;97741.44;5044016;28;20459;-83
2022/09/10 01:11:56;;;;;;;5.20;2.20;;;15.40;88.80;;;16.24;70.64;97727.56;5044814;28;20456;-81
2022/09/10 01:15:02;;;;;;;3.17;2.10;;;15.40;89.00;;;16.18;70.81;97736.81;5042406;28;20473;-84
2022/09/10 01:17:43;;;;;;;2.83;2.07;;;15.40;89.10;;;15.93;71.47;97730.84;5045008;28;20524;-83
2022/09/10 01:20:55;;;;;;;3.23;2.03;;;15.30;89.00;;;15.75;72.07;97721.09;5041481;28;20476;-78
2022/09/10 01:24:15;;;;;;;2.50;2.30;;;15.20;89.70;;;15.35;71.83;97662.41;5042845;28;20471;-86
2022/09/10 01:27:34;;;;;;;3.23;2.10;;;15.20;89.80;;;15.90;71.67;97734.06;5036640;28;20909;-84
2022/09/10 01:30:13;;;;;;;2.43;1.70;;;15.20;89.50;;;15.86;71.44;97725.59;5075606;28;20957;-83
2022/09/10 01:33:05;;;;;;;5.73;2.63;;;15.30;89.40;;;15.93;71.27;97732.75;5039846;28;20458;-82
2022/09/10 01:35:38;;;;;;;2.33;1.93;;;15.30;89.10;;;15.83;71.91;97728.00;5039286;28;20463;-85
2022/09/10 01:38:14;;;;;;;1.77;1.50;;;15.20;89.70;;;15.84;71.56;97719.53;5037506;28;20921;-85
2022/09/10 01:40:43;;;;;;;2.40;1.77;;;15.20;89.80;;;15.72;72.49;97737.97;5039115;28;20502;-83
2022/09/10 01:43:12;;;;;;;1.80;1.67;;;15.10;89.80;;;15.68;72.25;97726.75;5039407;28;20473;-84
2022/09/10 01:45:55;;;;;;;1.70;1.60;;;15.10;90.10;;;15.61;72.46;97726.09;5046906;28;20456;-83
2022/09/10 01:48:48;;;;;;;1.47;1.33;;;15.00;90.10;;;15.65;72.32;97726.44;5039793;28;20454;-83
2022/09/10 01:51:28;;;;;;;4.37;1.37;;;15.10;90.10;;;15.67;72.67;97727.00;5035377;28;20459;-82
2022/09/10 01:54:24;;;;;;;2.23;1.90;;;15.00;90.20;;;15.78;71.70;97730.69;5033330;28;20465;-83
2022/09/10 01:57:05;;;;;;;2.90;1.10;;;15.10;90.00;;;15.60;72.04;97720.94;5072535;28;20457;-81
2022/09/10 01:59:43;;;;;;;1.43;1.33;;;15.10;89.50;;;15.50;73.01;97733.34;5053329;28;20487;-84
2022/09/10 02:02:16;;;;;;;1.60;1.33;;;14.90;90.20;;;15.52;72.12;97714.84;5037987;28;20451;-84
2022/09/10 02:04:45;;;;;;;1.70;1.60;;;14.90;90.20;;;15.43;72.56;97719.94;5049634;28;20480;-83
2022/09/10 02:07:14;;;;;;;3.00;2.23;;;14.90;90.00;;;15.61;72.20;97722.59;5046892;28;20497;-81
2022/09/10 02:09:42;;;;;;;3.00;1.80;;;14.90;90.10;;;15.49;72.25;97715.38;5043776;28;20471;-85
2022/09/10 02:12:18;;;;;;;2.03;1.50;;;14.90;89.80;;;15.47;72.13;97709.38;5064399;28;20469;-83
2022/09/10 02:14:48;;;;;;;3.47;1.70;;;14.90;89.90;;;15.53;72.02;97713.78;5050352;28;21208;-83
2022/09/10 02:17:17;;;;;;;1.57;1.40;;;15.00;89.30;;;15.58;71.58;97716.56;5057195;28;20983;-85
2022/09/10 02:19:46;;;;;;;3.00;1.57;;;14.90;89.20;;;15.61;71.57;97717.13;5043929;28;21028;-86
2022/09/10 02:22:14;;;;;;;5.40;1.77;;;15.00;89.30;;;15.57;72.11;97714.94;5055811;28;21000;-81
2022/09/10 02:24:43;;;;;;;3.17;1.53;;;14.90;89.50;;;15.60;71.69;97713.56;5070567;28;20453;-81
2022/09/10 02:27:11;;;;;;;2.67;1.60;;;15.00;89.30;;;15.65;71.47;97710.94;5099372;28;20462;-80
2022/09/10 02:29:39;;;;;;;2.90;1.20;;;15.00;88.90;;;15.29;71.71;97672.41;5053315;28;20469;-83
2022/09/10 02:32:08;;;;;;;1.60;1.47;;;15.00;88.90;;;15.75;71.58;97703.94;5046089;28;20454;-82
2022/09/10 02:34:36;;;;;;;1.90;1.80;;;15.00;89.40;;;15.70;70.67;97697.34;5052874;28;20448;-81
2022/09/10 02:37:04;;;;;;;2.47;1.53;;;15.00;89.10;;;15.62;71.22;97684.22;5054258;28;20831;-80
2022/09/10 02:39:31;;;;;;;6.07;1.63;;;15.10;88.90;;;15.48;71.91;97704.75;5045063;28;20973;-80
2022/09/10 02:42:00;;;;;;;5.30;1.47;;;15.00;89.20;;;15.73;70.93;97696.03;5053404;28;20481;-81
2022/09/10 02:44:28;;;;;;;1.93;1.50;;;15.10;89.00;;;15.72;71.25;97700.66;5053141;28;20445;-78
2022/09/10 02:46:55;;;;;;;1.70;1.60;;;15.00;88.80;;;15.29;71.22;97648.75;5053142;28;20496;-82
2022/09/10 02:49:24;;;;;;;4.00;1.97;;;15.00;88.50;;;15.78;70.96;97712.41;5051922;28;20555;-78
2022/09/10 02:51:51;;;;;;;2.60;2.30;;;15.00;89.00;;;15.49;71.76;97707.19;5056561;28;20863;-85
2022/09/10 02:54:19;;;;;;;4.73;2.50;;;15.00;88.50;;;15.53;71.93;97708.34;5044610;28;20484;-81
2022/09/10 02:56:48;;;;;;;2.50;2.30;;;14.90;89.20;;;15.55;71.25;97703.47;5054630;28;20469;-82
2022/09/10 02:59:16;;;;;;;3.67;2.70;;;14.90;89.40;;;15.81;70.39;97714.63;5053158;28;20498;-84
2022/09/10 03:01:44;;;;;;;2.70;2.00;;;14.90;89.20;;;15.81;70.27;97722.78;5061270;28;20459;-85
2022/09/10 03:04:11;;;;;;;1.70;1.60;;;14.90;88.80;;;15.68;70.80;97721.31;5068002;28;20450;-83
2022/09/10 03:06:40;;;;;;;1.90;1.07;;;14.90;88.90;;;15.71;70.13;97709.88;5055160;28;20517;-84
2022/09/10 03:09:07;;;;;;;2.03;1.07;;;14.90;88.00;;;15.57;70.40;97719.53;5053242;28;20455;-80
2022/09/10 03:11:38;;;;;;;2.13;1.27;;;14.90;87.90;;;15.40;72.04;97719.63;5052589;28;20451;-82
2022/09/10 03:14:07;;;;;;;1.30;1.20;;;14.80;89.30;;;15.32;72.09;97723.63;5033637;28;20549;-85
2022/09/10 03:16:34;;;;;;;1.87;0.97;;;14.80;89.30;;;15.47;71.10;97703.91;5057501;28;20464;-82
2022/09/10 03:19:01;;;;;;;1.33;1.07;;;14.90;88.70;;;15.73;70.38;97717.81;5054172;28;20530;-80
2022/09/10 03:21:28;;;;;;;1.33;0.83;;;14.90;88.10;;;15.73;70.05;97707.72;5064936;28;20473;-83
2022/09/10 03:23:57;;;;;;;1.73;0.97;;;15.00;88.10;;;15.36;71.09;97694.81;5051565;28;20496;-79
2022/09/10 03:26:25;;;;;;;1.90;1.30;;;14.90;87.60;;;15.30;72.12;97710.25;5035616;28;20482;-86
2022/09/10 03:28:52;;;;;;;0.97;0.80;;;14.80;88.20;;;15.47;70.98;97712.09;5046928;28;20511;-82
2022/09/10 03:31:20;;;;;;;1.10;0.90;;;14.80;88.00;;;15.67;70.03;97716.94;5055786;28;20474;-83
2022/09/10 03:33:49;;;;;;;1.07;0.97;;;14.80;87.90;;;15.66;70.52;97711.72;5055148;28;20508;-83
2022/09/10 03:36:17;;;;;;;0.70;0.70;;;14.90;88.20;;;15.52;70.01;97690.34;5051271;28;20462;-83
2022/09/10 03:38:45;;;;;;;2.57;1.00;;;14.90;87.70;;;15.76;70.00;97711.84;5092941;28;20487;-80
2022/09/10 03:41:14;;;;;;;1.23;0.80;;;14.90;87.40;;;15.51;70.46;97701.53;5063617;28;20546;-81
2022/09/10 03:43:41;;;;;;;2.63;0.87;;;14.90;87.40;;;15.51;70.33;97710.50;5053364;28;20528;-80
2022/09/10 03:46:09;;;;;;;3.03;0.87;;;14.90;87.10;;;15.37;70.63;97696.47;5045885;28;20915;-82
2022/09/10 03:48:38;;;;;;;1.13;0.80;;;14.80;87.20;;;15.62;69.58;97707.88;5044810;28;20462;-81
2022/09/10 03:51:05;;;;;;;1.50;0.80;;;14.90;86.90;;;15.43;69.67;97684.53;5044099;28;20465;-80
2022/09/10 03:53:33;;;;;;;2.30;0.80;;;14.90;86.80;;;15.50;70.22;97697.97;5052235;28;20513;-80
2022/09/10 03:56:00;;;;;;;2.60;0.87;;;14.90;87.00;;;15.54;70.32;97701.84;5050566;28;21013;-81
2022/09/10 03:58:28;;;;;;;1.93;0.73;;;14.80;87.50;;;15.32;72.15;97703.75;5074349;28;20489;-82
2022/09/10 04:00:55;;;;;;;1.27;1.00;;;14.70;88.90;;;15.40;72.00;97708.75;5050958;28;20478;-81
2022/09/10 04:03:23;;;;;;;2.77;1.30;;;14.70;90.00;;;15.25;72.27;97710.22;5038180;28;21107;-81
2022/09/10 04:05:50;;;;;;;0.87;0.63;;;14.60;90.10;;;15.39;71.87;97715.25;5049475;28;20460;-83
2022/09/10 04:08:19;;;;;;;1.10;0.60;;;14.60;90.20;;;15.25;72.51;97710.22;5038173;28;20482;-81
2022/09/10 04:10:47;;;;;;;4.93;0.93;;;14.60;90.10;;;15.15;72.88;97710.06;5041956;28;20501;-82
2022/09/10 04:13:14;;;;;;;1.63;0.70;;;14.50;90.60;;;15.24;72.50;97711.28;5041151;28;20477;-81
2022/09/10 04:15:45;;;;;;;2.03;0.87;;;14.40;90.90;;;15.06;73.43;97719.75;5033354;28;20462;-82
2022/09/10 04:18:13;;;;;;;1.90;0.80;;;14.40;91.20;;;15.21;73.07;97710.97;5038842;28;20459;-83
2022/09/10 04:20:41;;;;;;;1.40;0.83;;;14.40;91.40;;;15.20;73.96;97707.41;5036867;28;20470;-81
2022/09/10 04:23:08;;;;;;;1.20;0.80;;;14.40;91.60;;;14.82;73.56;97649.28;5038420;28;20468;-78
2022/09/10 04:25:35;;;;;;;2.50;0.80;;;14.50;91.50;;;15.18;73.53;97715.00;5040899;28;20454;-80
2022/09/10 04:28:03;;;;;;;1.97;1.00;;;14.50;91.20;;;15.37;72.83;97726.41;5044533;28;20496;-83
2022/09/10 04:30:30;;;;;;;1.33;0.80;;;14.60;91.10;;;15.30;73.08;97720.31;5039572;28;20453;-79
2022/09/10 04:32:58;;;;;;;1.07;0.60;;;14.70;90.60;;;15.36;73.07;97718.47;5034453;28;20454;-82
2022/09/10 04:35:26;;;;;;;2.60;1.00;;;14.70;90.60;;;15.54;72.01;97718.16;5033111;28;20593;-84
2022/09/10 04:37:53;;;;;;;2.40;0.90;;;14.70;90.20;;;15.55;72.42;97717.09;5044271;28;20527;-81
2022/09/10 04:40:21;;;;;;;1.70;0.80;;;14.70;90.70;;;15.34;72.70;97696.97;5041302;28;20538;-77
2022/09/10 04:42:48;;;;;;;2.40;0.90;;;14.70;90.60;;;15.27;74.07;97724.38;5042993;28;20458;-83
2022/09/10 04:45:15;;;;;;;2.73;0.93;;;14.70;91.10;;;15.40;73.33;97725.09;5048995;28;20462;-83
2022/09/10 04:47:42;;;;;;;1.30;0.80;;;14.70;91.40;;;15.09;74.67;97719.22;5043386;28;21188;-83
2022/09/10 04:50:11;;;;;;;2.00;0.63;;;14.60;91.90;;;15.02;75.75;97738.50;5050260;28;21088;-82
2022/09/10 04:52:38;;;;;;;3.30;0.70;;;14.50;92.20;;;15.36;74.39;97723.91;5055863;28;20457;-77
2022/09/10 04:55:07;;;;;;;3.47;0.90;;;14.60;92.00;;;15.10;76.02;97737.22;5051513;28;20545;-76
2022/09/10 04:57:34;;;;;;;2.27;1.50;;;14.60;93.20;;;14.85;77.22;97703.16;5047922;28;20532;-77
2022/09/10 05:00:02;;;;;;;2.90;1.40;;;14.50;94.00;;;14.99;78.68;97728.91;5060724;28;20467;-77
2022/09/10 05:02:30;;;;;;;1.20;1.03;;;14.40;95.60;;;14.92;78.47;97730.19;5063509;28;20548;-74
2022/09/10 05:04:57;;;;;;;1.70;1.53;;;14.40;95.30;;;14.82;79.20;97737.09;5070213;28;20461;-73
2022/09/10 05:07:26;;;;;;;2.53;1.77;;;14.30;96.30;;;14.87;79.78;97734.47;5088404;28;20535;-74
2022/09/10 05:09:54;;;;;;;2.53;1.10;;;14.30;97.10;;;14.90;79.17;97730.41;5058244;28;20458;-78
2022/09/10 05:12:22;;;;;;;1.63;1.47;;;14.30;97.10;;;15.05;78.73;97745.31;5054984;28;20546;-77
2022/09/10 05:14:49;;;;;;;1.60;1.13;;;14.40;96.30;;;15.18;78.44;97736.78;5039562;28;20556;-74
2022/09/10 05:17:16;;;;;;;3.17;1.37;;;14.50;96.30;;;15.00;79.55;97740.59;5081115;28;20462;-78
2022/09/10 05:19:43;;;;;;;3.20;1.77;;;14.50;96.40;;;14.87;79.63;97736.34;5040180;28;20951;-80
2022/09/10 05:22:11;;;;;;;4.20;1.43;;;14.40;95.90;;;14.90;79.66;97740.50;5044652;28;20489;-74
2022/09/10 05:24:39;;;;;;;1.93;1.70;;;14.40;96.40;;;14.96;79.43;97737.59;5036796;28;20458;-81
2022/09/10 05:27:07;;;;;;;1.73;1.30;;;14.40;96.80;;;15.38;77.66;97746.25;5038976;28;21698;-77
2022/09/10 05:29:34;;;;;;;2.80;1.20;;;14.60;95.70;;;15.19;78.82;97752.03;5037491;28;20520;-78
2022/09/10 05:32:02;;;;;;;1.30;1.20;;;14.60;95.40;;;15.09;78.95;97752.72;5062992;28;20453;-73
2022/09/10 05:34:29;;;;;;;3.90;1.27;;;14.60;95.50;;;15.46;77.43;97754.00;5049430;28;20467;-76
2022/09/10 05:36:56;;;;;;;1.30;1.10;;;14.70;94.90;;;15.25;78.86;97751.03;5051247;28;20926;-80
2022/09/10 05:39:23;;;;;;;2.40;1.20;;;14.70;95.50;;;15.31;78.22;97754.63;5036721;28;20467;-78
2022/09/10 05:41:54;;;;;;;3.53;1.30;;;14.70;95.40;;;15.44;77.96;97758.88;5040897;28;20567;-81
2022/09/10 05:44:21;;;;;;;2.23;1.20;;;14.80;95.20;;;15.22;78.57;97751.50;5036477;28;20470;-79
2022/09/10 05:46:48;;;;;;;2.00;1.07;;;14.70;95.20;;;15.38;77.66;97752.53;5049535;28;20489;-79
2022/09/10 05:49:15;;;;;;;1.63;1.50;;;14.70;94.70;;;15.32;77.01;97744.56;5038855;28;20468;-78
2022/09/10 05:51:42;;;;;;;1.97;1.70;;;14.80;93.90;;;15.08;76.54;97687.66;5038414;28;20444;-81
2022/09/10 05:54:10;;;;;;;3.53;1.80;;;14.70;94.10;;;15.65;75.87;97756.38;5045019;28;20490;-76
2022/09/10 05:56:37;;;;;;;3.83;1.10;;;14.80;94.10;;;15.13;76.54;97691.28;5046030;28;20871;-76
2022/09/10 05:59:06;;;;;;;1.20;1.10;;;14.80;93.80;;;15.61;76.16;97749.81;5041644;28;20462;-81
2022/09/10 06:01:33;;;;;;;1.93;1.00;;;14.80;93.90;;;15.79;74.61;97754.91;5034572;28;20483;-79
2022/09/10 06:04:00;;;;;;;1.30;1.20;;;14.90;92.90;;;16.04;74.27;97758.19;5045349;28;20944;-73
2022/09/10 06:06:28;;;;;;;1.47;1.07;;;15.10;92.90;;;15.57;75.97;97760.38;5044774;28;20457;-78
2022/09/10 06:08:55;;;;;;;1.50;1.40;;;15.00;92.80;;;15.80;75.80;97761.19;5045825;28;20512;-79
2022/09/10 06:11:23;;;;;;;1.63;0.90;;;15.00;93.30;;;15.80;76.04;97755.75;5038835;28;20972;-80
2022/09/10 06:13:52;;;;;;;1.60;0.83;;;15.10;93.10;;;15.99;74.88;97759.78;5029233;28;20563;-82
2022/09/10 06:16:20;;;;;;;2.77;1.10;;;15.30;92.30;;;15.80;75.53;97751.09;5033583;28;20462;-78
2022/09/10 06:18:48;;;;;;;1.40;0.80;;;15.30;92.40;;;16.25;73.74;97767.38;5034562;28;20456;-80
2022/09/10 06:21:17;;;;;;;2.63;1.07;;;15.40;91.80;;;16.29;72.75;97757.59;5033816;28;20504;-79
2022/09/10 06:23:46;;;;;;;1.20;1.00;;;15.60;90.90;;;16.40;73.18;97764.78;5031871;28;20570;-81
2022/09/10 06:26:17;;;;;;;2.30;1.50;;;15.60;91.00;;;16.56;72.16;97771.19;5038119;28;20914;-82
2022/09/10 06:28:44;;;;;;;1.37;0.97;;;15.80;90.60;;;16.62;71.96;97774.78;5035618;28;20529;-74
2022/09/10 06:31:15;;;;;;;1.20;1.00;;;15.90;90.30;;;16.13;72.65;97700.22;5036004;28;20451;-82
2022/09/10 06:33:45;;;;;;;2.03;0.87;;;15.80;90.90;;;16.66;71.25;97766.88;5029297;28;20465;-81
2022/09/10 06:36:13;;;;;;;3.13;1.10;;;15.90;90.00;;;16.30;72.73;97761.97;5033122;28;20578;-72
2022/09/10 06:38:42;;;;;;;1.00;0.90;;;15.90;90.10;;;16.29;73.28;97773.94;5031754;28;20468;-75
2022/09/10 06:41:14;;;;;;;2.90;1.20;;;15.70;90.50;;;16.19;73.34;97771.16;5034089;28;21059;-80
2022/09/10 06:43:42;;;;;;;1.80;0.90;;;15.60;90.70;;;16.13;73.92;97771.06;5039291;28;20452;-82
2022/09/10 06:46:15;;;;;;;1.60;0.70;;;15.60;91.00;;;16.38;72.75;97769.69;5036022;28;20552;-79
2022/09/10 06:48:44;;;;;;;1.27;1.03;;;15.70;90.80;;;16.34;72.96;97767.72;5034514;28;20497;-82
2022/09/10 06:51:12;;;;;;;4.43;1.33;;;15.70;90.70;;;16.40;73.44;97778.41;5033725;28;20556;-80
2022/09/10 06:53:42;;;;;;;2.83;0.87;;;15.80;91.00;;;16.75;72.75;97765.34;5036348;28;20550;-78
2022/09/10 06:56:12;;;;;;;2.00;0.90;;;16.00;90.60;;;16.55;73.07;97766.00;5053818;28;20481;-79
2022/09/10 06:58:40;;;;;;;2.23;0.73;;;16.00;90.50;;;16.92;70.77;97767.91;5035520;28;22273;-78
2022/09/10 07:01:09;;;;;;;1.40;0.70;;;16.10;89.40;;;17.17;70.80;97776.53;5041084;28;21054;-77
2022/09/10 07:03:37;;;;;;;1.00;0.70;;;16.30;89.30;;;17.20;69.48;97776.81;5028877;28;20486;-81
2022/09/10 07:06:09;;;;;;;1.37;0.80;;;16.40;87.90;;;17.34;68.61;97770.88;5043235;28;20474;-79
2022/09/10 07:08:38;;;;;;;1.90;0.60;;;16.50;87.10;;;17.32;69.46;97770.31;5039176;28;20460;-81
2022/09/10 07:11:10;;;;;;;1.10;0.80;;;16.60;87.40;;;17.55;69.08;97767.16;5030540;28;20465;-77
2022/09/10 07:13:37;;;;;;;1.47;0.90;;;16.70;87.40;;;17.33;69.60;97775.53;5032659;28;20935;-79
2022/09/10 07:16:05;;;;;;;1.00;0.73;;;16.70;87.30;;;16.68;71.73;97765.56;5034729;28;20510;-79
2022/09/10 07:18:33;;;;;;;1.30;0.70;;;16.30;88.40;;;16.57;72.63;97780.19;5040858;28;20473;-80
2022/09/10 07:21:09;;;;;;;0.80;0.80;;;16.10;89.40;;;16.55;72.93;97768.72;5047206;28;20461;-80
2022/09/10 07:23:37;;;;;;;2.47;1.27;;;16.00;90.30;;;17.06;71.14;97786.56;5037910;28;20954;-80
2022/09/10 07:26:06;;;;;;;2.03;1.20;;;16.20;90.00;;;17.28;69.57;97789.97;5033491;28;20467;-77
2022/09/10 07:28:35;;;;;;;1.77;1.00;;;16.40;88.50;;;17.36;69.63;97785.91;5028335;28;20565;-82
2022/09/10 07:31:13;;;;;;;1.63;0.97;;;16.60;88.00;;;17.83;68.32;97778.72;5033738;28;20454;-78
2022/09/10 07:33:41;;;;;;;1.00;0.83;;;16.80;88.00;;;17.83;68.05;97789.66;5035787;28;20458;-82
2022/09/10 07:36:11;;;;;;;1.17;1.07;;;17.00;87.00;;;18.14;67.74;97782.66;5040417;28;20547;-75
2022/09/10 07:38:39;;;;;;;1.70;1.10;;;17.20;86.80;;;17.92;67.61;97792.69;5030894;28;20482;-76
2022/09/10 07:41:10;;;;;;;2.07;1.13;;;17.20;86.00;;;18.02;66.92;97781.00;5053419;28;20471;-79
2022/09/10 07:43:38;;;;;;;1.43;1.33;;;17.40;85.50;;;17.86;67.96;97787.47;5035813;28;20450;-76
2022/09/10 07:46:06;;;;;;;1.67;1.20;;;17.30;85.60;;;17.60;69.64;97799.16;5035718;28;20471;-78
2022/09/10 07:48:34;;;;;;;1.73;1.13;;;17.10;86.50;;;17.07;70.82;97794.50;5039808;28;20907;-77
2022/09/10 07:51:03;;;;;;;1.93;1.30;;;16.70;86.80;;;17.65;69.30;97801.88;5047770;28;20487;-77
2022/09/10 07:53:31;;;;;;;0.80;0.80;;;16.90;87.20;;;17.85;68.37;97811.25;5042913;28;20469;-81
2022/09/10 07:56:01;;;;;;;1.00;0.90;;;17.00;86.70;;;18.26;67.13;97796.88;5040709;28;20466;-80
2022/09/10 07:58:29;;;;;;;1.70;1.20;;;17.40;86.40;;;18.48;65.45;97804.84;5059380;28;20492;-81
2022/09/10 08:00:58;;;;;;;2.10;0.97;;;17.70;84.70;;;18.58;65.81;97804.03;5058867;28;20472;-78
2022/09/10 08:03:26;;;;;;;1.60;0.93;;;17.90;84.80;;;18.58;65.40;97804.03;5056313;28;20785;-76
2022/09/10 08:05:53;;;;;;;1.63;0.60;;;17.90;84.40;;;18.92;64.24;97808.94;5064463;28;20470;-76
2022/09/10 08:08:21;;;;;;;2.13;0.87;;;18.20;83.60;;;18.80;64.30;97811.13;5068725;28;20476;-75
2022/09/10 08:10:49;;;;;;;0.90;0.60;;;18.20;83.10;;;18.72;64.33;97809.78;5045356;28;20467;-80
2022/09/10 08:13:17;;;;;;;1.83;1.00;;;18.20;83.00;;;18.92;65.14;97813.59;5046634;28;20499;-83
2022/09/10 08:15:44;;;;;;;0.90;0.80;;;18.20;83.80;;;18.69;66.03;97816.59;5048720;28;20442;-83
2022/09/10 08:18:12;;;;;;;1.90;0.97;;;18.00;84.40;;;18.87;63.96;97817.13;5045132;28;20883;-78
2022/09/10 08:20:39;;;;;;;1.60;1.00;;;18.20;83.40;;;18.67;65.35;97816.06;5044054;28;21380;-77
2022/09/10 08:23:07;;;;;;;0.80;0.80;;;18.10;83.90;;;18.40;65.86;97816.31;5038251;28;20495;-83
2022/09/10 08:25:35;;;;;;;1.73;1.00;;;17.90;83.60;;;18.46;66.13;97830.84;5041249;28;20903;-84
2022/09/10 08:28:04;;;;;;;3.27;0.90;;;17.90;84.30;;;18.52;66.60;97821.53;5041802;28;20582;-84
2022/09/10 08:30:31;;;;;;;1.47;0.90;;;17.80;84.80;;;18.26;67.02;97829.69;5039661;28;20448;-79
2022/09/10 08:32:58;;;;;;;1.10;0.70;;;17.80;84.60;;;18.22;67.23;97826.69;5077588;28;20551;-83
2022/09/10 08:35:26;;;;;;;2.10;0.70;;;17.60;85.10;;;17.79;69.81;97834.19;5038765;28;20971;-75
2022/09/10 08:37:53;;;;;;;1.47;1.20;;;17.30;86.20;;;17.93;68.87;97831.75;5038942;28;20485;-81
2022/09/10 08:40:22;;;;;;;1.63;0.73;;;17.30;86.40;;;17.95;69.21;97829.56;5035422;28;20822;-75
2022/09/10 08:42:52;;;;;;;1.27;0.90;;;17.30;86.80;;;17.66;70.91;97846.41;5039166;28;20554;-75
2022/09/10 08:45:27;;;;;;;1.17;0.70;;;17.10;88.40;;;17.59;71.25;97845.84;5042773;28;20457;-79
2022/09/10 08:48:02;;;;;;;2.50;1.30;;;17.00;88.90;;;17.40;72.72;97841.63;5044885;28;21052;-78
2022/09/10 08:50:38;;;;;;;2.43;1.17;;;16.90;90.10;;;17.97;69.64;97841.91;5037719;28;20458;-79
2022/09/10 08:53:21;;;;;;;3.33;0.90;;;17.10;88.30;;;18.23;69.30;97854.84;5041952;28;20732;-82
2022/09/10 08:55:50;;;;;;;2.10;1.30;;;17.40;88.10;;;18.54;68.19;97847.53;5038992;28;20529;-80
2022/09/10 08:58:22;;;;;;;1.00;0.70;;;17.70;87.20;;;18.75;68.38;97850.25;5034676;28;20464;-77
2022/09/10 09:00:57;;;;;;;4.07;0.90;;;17.90;87.40;;;18.26;68.74;97855.13;5040705;28;20466;-76
2022/09/10 09:03:32;;;;;;;2.13;1.20;;;17.80;87.10;;;17.83;71.20;97852.50;5037245;28;20492;-75
2022/09/10 09:06:01;;;;;;;2.10;0.93;;;17.40;88.50;;;18.19;68.87;97860.00;5040431;28;20543;-76
2022/09/10 09:08:33;;;;;;;1.63;0.93;;;17.40;87.20;;;18.14;69.57;97848.28;5040351;28;20469;-75
2022/09/10 09:11:10;;;;;;;1.20;0.93;;;17.40;87.60;;;17.95;70.38;97863.22;5037390;28;20596;-77
2022/09/10 09:13:58;;;;;;;1.17;0.90;;;17.30;87.80;;;18.33;68.94;97857.59;5048303;28;20467;-75
2022/09/10 09:16:57;;;;;;;0.73;0.73;;;17.60;88.00;;;17.71;71.26;97876.50;5049958;28;20566;-76
2022/09/10 09:19:32;;;;;;;1.20;1.10;;;17.20;88.00;;;18.43;67.87;97854.06;5051080;28;20940;-73
2022/09/10 09:22:08;;;;;;;1.10;0.70;;;17.60;87.00;;;18.44;68.57;97863.09;5039777;28;20473;-76
2022/09/10 09:24:48;;;;;;;1.57;1.20;;;17.70;86.80;;;18.21;69.53;97857.03;5027882;28;20547;-75
2022/09/10 09:27:18;;;;;;;2.20;1.00;;;17.70;86.90;;;18.18;69.43;97855.63;5043122;28;20467;-75
2022/09/10 09:29:54;;;;;;;2.03;1.50;;;17.60;87.40;;;18.00;69.85;97865.16;5048212;28;20549;-75
2022/09/10 09:32:24;;;;;;;1.50;1.30;;;17.50;87.10;;;17.81;70.86;97851.94;5051377;28;20491;-76
2022/09/10 09:34:55;;;;;;;2.03;1.07;;;17.40;87.90;;;18.89;67.99;97853.28;5048275;28;20556;-75
2022/09/10 09:37:28;;;;;;;2.60;1.30;;;17.80;88.10;;;19.27;65.39;97849.44;5046736;28;20468;-76
2022/09/10 09:40:07;;;;;;;1.63;1.23;;;18.30;85.60;;;19.67;65.10;97847.69;5049734;28;20533;-75
2022/09/10 09:42:44;;;;;;;4.77;1.07;;;18.70;85.70;;;19.87;64.92;97848.72;5049037;28;20480;-75
2022/09/10 09:45:24;;;;;;;1.20;1.00;;;18.90;85.30;;;19.90;63.38;97837.19;5029647;28;20464;-75
2022/09/10 09:47:54;;;;;;;2.33;1.40;;;19.10;83.80;;;19.59;65.19;97840.03;5038567;28;20477;-76
2022/09/10 09:50:22;;;;;;;1.33;1.20;;;19.10;84.30;;;18.90;66.69;97827.56;5049041;28;20986;-76
2022/09/10 09:52:54;;;;;;;1.47;1.17;;;18.70;84.80;;;19.60;65.73;97822.50;5047255;28;20460;-77
2022/09/10 09:55:30;;;;;;;3.70;1.23;;;18.80;85.30;;;20.14;64.06;97828.34;5050345;28;20459;-76
2022/09/10 09:58:30;;;;;;;2.40;1.17;;;19.20;84.70;;;20.02;63.50;97834.97;5048774;28;20938;-75
2022/09/10 10:01:15;;;;;;;1.90;1.13;;;19.40;84.10;;;19.62;64.09;97828.53;5051526;28;20586;-76
2022/09/10 10:04:01;;;;;;;2.00;1.07;;;19.00;83.60;;;19.94;63.66;97832.81;5048443;28;20488;-75
2022/09/10 10:06:32;;;;;;;2.07;1.30;;;19.00;84.00;;;19.44;65.10;97836.25;5050573;28;20484;-77
2022/09/10 10:09:06;;;;;;;2.50;1.03;;;19.00;84.00;;;18.55;67.34;97771.75;5063799;28;20858;-77
2022/09/10 10:11:53;;;;;;;1.77;1.30;;;18.40;84.70;;;19.42;65.13;97821.22;5055037;28;20449;-76
2022/09/10 10:14:40;;;;;;;4.67;1.60;;;18.60;84.60;;;19.05;66.28;97817.72;5050022;28;20960;-77
2022/09/10 10:17:29;;;;;;;4.30;1.67;;;18.50;84.30;;;18.88;66.76;97823.44;5049334;28;20456;-75
2022/09/10 10:20:03;;;;;;;3.07;1.50;;;18.40;84.70;;;18.51;68.53;97815.25;5065963;28;20445;-77
2022/09/10 10:22:31;;;;;;;3.07;1.50;;;18.00;85.80;;;18.22;69.86;97834.91;5044726;28;20492;-78
2022/09/10 10:25:00;;;;;;;1.97;1.57;;;17.70;86.50;;;17.92;71.47;97839.16;5048319;28;20463;-77
2022/09/10 10:27:32;;;;;;;2.27;1.50;;;17.40;88.40;;;17.64;71.81;97781.13;5060798;28;20987;-76
2022/09/10 10:30:21;;;;;;;4.50;1.50;;;17.20;90.10;;;17.65;73.85;97840.13;5048517;28;20503;-75
2022/09/10 10:32:54;;;;;;;3.73;1.40;;;17.00;91.40;;;17.74;73.59;97824.03;5048763;28;20470;-77
2022/09/10 10:35:36;;;;;;;1.83;1.60;;;17.00;92.10;;;17.84;72.72;97826.00;5047685;28;20460;-76
2022/09/10 10:38:30;;;;;;;2.80;1.57;;;17.00;91.90;;;17.99;72.88;97834.25;5047900;28;20444;-76